KBMG/BMG METAR and TAF weather

Enter ICAO airport designator
Station Type Date Time Source
KBMG METAR 2019/06/16 06:53 UTC NOAA

KBMG 160653Z AUTO 22009G17KT 10SM FEW035 BKN055 OVC100 23/21 A2981 RMK AO2 LTG DSNT S AND SW SLP089 T02280206


Station Type Date Time Source
KBMG Decoded METAR 2019/06/16 06:53 UTC NOAA

MONROE COUNTY AIRPORT, IN, United States (KBMG) 39-09N 086-37W 257M
Jun 16, 2019 - 02:53 AM EDT / 2019.06.16 0653 UTC
Wind: from the SW (220 degrees) at 10 MPH (9 KT) gusting to 20 MPH (17 KT):0
Visibility: 10 mile(s):0
Sky conditions: overcast
Weather: Lightning observed
Temperature: 73.0 F (22.8 C)
Dew Point: 69.1 F (20.6 C)
Relative Humidity: 87%
Pressure (altimeter): 29.81 in. Hg (1009 hPa)
ob: KBMG 160653Z AUTO 22009G17KT 10SM FEW035 BKN055 OVC100 23/21 A2981 RMK AO2 LTG DSNT S AND SW SLP089 T02280206
cycle: 7

Station Type Date Time Source
KBMG TAF 2019/06/16 06:22 UTC NOAA

TAF KBMG 160520Z 1606/1706 VRB04KT P6SM VCSH BKN070
FM160900 23005KT 6SM BR VCTS BKN035CB
TEMPO 1609/1611 2SM TSRA BR OVC015CB
FM161100 22005KT 6SM BR VCSH OVC025
FM161800 24008KT P6SM VCSH BKN040
AMD LTD TO CLD VIS AND WIND TIL 161300

Example: see airport list